sensor_id;sensor_type;location;lat;lon;timestamp;P1;P4;P2;P0;N10;N4;N25;N1;N05;TS
71550;SPS30;59367;48.414;9.872;2023-09-19T00:00:04;6397.902344;;4680.993652;;;;;;;
71550;SPS30;59367;48.414;9.872;2023-09-19T00:01:10;6365.462891;;4658.070313;;;;;;;
71550;SPS30;59367;48.414;9.872;2023-09-19T00:02:15;6622.222656;;4808.365723;;;;;;;
71550;SPS30;59367;48.414;9.872;2023-09-19T00:03:19;6339.742676;;4645.431641;;;;;;;
71550;SPS30;59367;48.414;9.872;2023-09-19T00:04:24;6230.91748;;4577.101563;;;;;;;
71550;SPS30;59367;48.414;9.872;2023-09-19T00:05:28;6569.647949;;4776.287109;;;;;;;
71550;SPS30;59367;48.414;9.872;2023-09-19T00:06:37;6921.425293;;4974.574219;;;;;;;
71550;SPS30;59367;48.414;9.872;2023-09-19T00:07:41;6358.930664;;4653.677734;;;;;;;
71550;SPS30;59367;48.414;9.872;2023-09-19T00:08:45;6908.733398;;4979.718262;;;;;;;
71550;SPS30;59367;48.414;9.872;2023-09-19T00:09:50;6759.589844;;4895.083984;;;;;;;
71550;SPS30;59367;48.414;9.872;2023-09-19T00:10:54;6619.120117;;4819.672363;;;;;;;
71550;SPS30;59367;48.414;9.872;2023-09-19T00:11:59;6905.422852;;4970.472656;;;;;;;
71550;SPS30;59367;48.414;9.872;2023-09-19T00:13:03;6093.69873;;4500.45752;;;;;;;
71550;SPS30;59367;48.414;9.872;2023-09-19T00:14:08;6404.057617;;4671.57959;;;;;;;
71550;SPS30;59367;48.414;9.872;2023-09-19T00:15:13;6341.736328;;4648.677734;;;;;;;
71550;SPS30;59367;48.414;9.872;2023-09-19T00:16:17;6479.168945;;4722.088379;;;;;;;
71550;SPS30;59367;48.414;9.872;2023-09-19T00:17:22;6216.032227;;4572.198242;;;;;;;
71550;SPS30;59367;48.414;9.872;2023-09-19T00:18:26;6569.452637;;4781.749512;;;;;;;
71550;SPS30;59367;48.414;9.872;2023-09-19T00:19:31;6319.801758;;4635.86084;;;;;;;
71550;SPS30;59367;48.414;9.872;2023-09-19T00:20:37;6581.280273;;4787.93457;;;;;;;
71550;SPS30;59367;48.414;9.872;2023-09-19T00:21:42;6804.534668;;4918.12207;;;;;;;
71550;SPS30;59367;48.414;9.872;2023-09-19T00:22:46;6503.267578;;4746.608887;;;;;;;
71550;SPS30;59367;48.414;9.872;2023-09-19T00:23:51;6500.539551;;4733.130371;;;;;;;
71550;SPS30;59367;48.414;9.872;2023-09-19T00:24:55;6483.404785;;4725.923828;;;;;;;
71550;SPS30;59367;48.414;9.872;2023-09-19T00:26:00;6319.27002;;4632.043457;;;;;;;
71550;SPS30;59367;48.414;9.872;2023-09-19T00:27:05;6627.735352;;4811.494141;;;;;;;
71550;SPS30;59367;48.414;9.872;2023-09-19T00:28:09;6846.189941;;4942.75;;;;;;;
71550;SPS30;59367;48.414;9.872;2023-09-19T00:29:14;6932.276367;;4993.563965;;;;;;;
71550;SPS30;59367;48.414;9.872;2023-09-19T00:30:18;6691.310547;;4854.898926;;;;;;;
71550;SPS30;59367;48.414;9.872;2023-09-19T00:31:23;6278.821289;;4614.020996;;;;;;;
71550;SPS30;59367;48.414;9.872;2023-09-19T00:32:27;6311.591797;;4629.509766;;;;;;;
71550;SPS30;59367;48.414;9.872;2023-09-19T00:33:31;6282.060547;;4607.598633;;;;;;;
71550;SPS30;59367;48.414;9.872;2023-09-19T00:34:36;6352.035645;;4651.727539;;;;;;;
71550;SPS30;59367;48.414;9.872;2023-09-19T00:35:40;6609.955078;;4800.917969;;;;;;;
71550;SPS30;59367;48.414;9.872;2023-09-19T00:36:52;6821.402832;;4929.863281;;;;;;;
71550;SPS30;59367;48.414;9.872;2023-09-19T00:37:56;6479.526855;;4728.983398;;;;;;;
71550;SPS30;59367;48.414;9.872;2023-09-19T00:39:01;6222.086914;;4574.989746;;;;;;;
71550;SPS30;59367;48.414;9.872;2023-09-19T00:40:06;6208.070801;;4573.80127;;;;;;;
71550;SPS30;59367;48.414;9.872;2023-09-19T00:41:12;6307.131836;;4636.828613;;;;;;;
71550;SPS30;59367;48.414;9.872;2023-09-19T00:42:19;6507.416016;;4757.729004;;;;;;;
71550;SPS30;59367;48.414;9.872;2023-09-19T00:43:24;6146.492676;;4556.791504;;;;;;;
71550;SPS30;59367;48.414;9.872;2023-09-19T00:44:29;6267.192383;;4622.650391;;;;;;;
71550;SPS30;59367;48.414;9.872;2023-09-19T00:45:33;6394.529297;;4700.683594;;;;;;;
71550;SPS30;59367;48.414;9.872;2023-09-19T00:46:41;6787.634277;;4924.608887;;;;;;;
71550;SPS30;59367;48.414;9.872;2023-09-19T00:47:46;6473.808594;;4741.212891;;;;;;;
71550;SPS30;59367;48.414;9.872;2023-09-19T00:48:52;6363.317871;;4686.814453;;;;;;;
71550;SPS30;59367;48.414;9.872;2023-09-19T00:49:56;6691.185547;;4885.890137;;;;;;;
71550;SPS30;59367;48.414;9.872;2023-09-19T00:51:02;6237.341309;;4643.724121;;;;;;;
71550;SPS30;59367;48.414;9.872;2023-09-19T00:52:07;6583.276367;;4877.644043;;;;;;;
71550;SPS30;59367;48.414;9.872;2023-09-19T00:53:13;7344.022461;;5356.015137;;;;;;;
71550;SPS30;59367;48.414;9.872;2023-09-19T00:54:20;7103.928711;;5217.820801;;;;;;;
71550;SPS30;59367;48.414;9.872;2023-09-19T00:55:24;7057.739746;;5178.455078;;;;;;;
71550;SPS30;59367;48.414;9.872;2023-09-19T00:56:31;6647.072266;;4912.296875;;;;;;;
71550;SPS30;59367;48.414;9.872;2023-09-19T00:57:36;6688.018066;;4898.65918;;;;;;;
71550;SPS30;59367;48.414;9.872;2023-09-19T00:58:41;6648.686523;;4837.585449;;;;;;;
71550;SPS30;59367;48.414;9.872;2023-09-19T00:59:46;6472.572266;;4729.805664;;;;;;;
71550;SPS30;59367;48.414;9.872;2023-09-19T01:00:52;6553.828613;;4773.417969;;;;;;;
71550;SPS30;59367;48.414;9.872;2023-09-19T01:01:57;6515.628906;;4755.356934;;;;;;;
71550;SPS30;59367;48.414;9.872;2023-09-19T01:03:02;6489.189941;;4733.703613;;;;;;;
71550;SPS30;59367;48.414;9.872;2023-09-19T01:04:07;6701.189941;;4863.222656;;;;;;;
71550;SPS30;59367;48.414;9.872;2023-09-19T01:05:12;6618.425293;;4815.612793;;;;;;;
71550;SPS30;59367;48.414;9.872;2023-09-19T01:06:17;6259.740234;;4605.618164;;;;;;;
71550;SPS30;59367;48.414;9.872;2023-09-19T01:07:22;6621.278809;;4820.932129;;;;;;;
71550;SPS30;59367;48.414;9.872;2023-09-19T01:08:27;6627.451172;;4811.612305;;;;;;;
71550;SPS30;59367;48.414;9.872;2023-09-19T01:09:31;6416.239746;;4686.843262;;;;;;;
71550;SPS30;59367;48.414;9.872;2023-09-19T01:10:36;6291.90332;;4617.391113;;;;;;;
71550;SPS30;59367;48.414;9.872;2023-09-19T01:11:48;6204.765137;;4566.925781;;;;;;;
71550;SPS30;59367;48.414;9.872;2023-09-19T01:12:55;6284.912598;;4617.220215;;;;;;;
71550;SPS30;59367;48.414;9.872;2023-09-19T01:14:06;6470.099121;;4732.655273;;;;;;;
71550;SPS30;59367;48.414;9.872;2023-09-19T01:15:24;6261.186035;;4598.408691;;;;;;;
71550;SPS30;59367;48.414;9.872;2023-09-19T01:16:35;6252.976074;;4592.301758;;;;;;;
71550;SPS30;59367;48.414;9.872;2023-09-19T01:17:45;6176.773438;;4544.049316;;;;;;;
71550;SPS30;59367;48.414;9.872;2023-09-19T01:18:55;6093.181152;;4499.205078;;;;;;;
71550;SPS30;59367;48.414;9.872;2023-09-19T01:20:24;6433.501953;;4698.82373;;;;;;;
71550;SPS30;59367;48.414;9.872;2023-09-19T01:21:36;6425.322266;;4697.964355;;;;;;;
71550;SPS30;59367;48.414;9.872;2023-09-19T01:22:53;6682.805176;;4835.128906;;;;;;;
71550;SPS30;59367;48.414;9.872;2023-09-19T01:24:15;6307.64502;;4619.80957;;;;;;;
71550;SPS30;59367;48.414;9.872;2023-09-19T01:27:27;6286.981445;;4611.333984;;;;;;;
71550;SPS30;59367;48.414;9.872;2023-09-19T01:28:59;6423.365234;;4694.595703;;;;;;;
71550;SPS30;59367;48.414;9.872;2023-09-19T01:30:20;6583.25293;;4784.413086;;;;;;;
71550;SPS30;59367;48.414;9.872;2023-09-19T01:31:28;6698.824219;;4856.44043;;;;;;;
71550;SPS30;59367;48.414;9.872;2023-09-19T01:32:36;6120.603516;;4517.344727;;;;;;;
71550;SPS30;59367;48.414;9.872;2023-09-19T01:33:59;6303.600098;;4620.742188;;;;;;;
71550;SPS30;59367;48.414;9.872;2023-09-19T01:35:04;6284.728516;;4611.141602;;;;;;;
71550;SPS30;59367;48.414;9.872;2023-09-19T01:36:09;6903.051758;;4976.480957;;;;;;;
71550;SPS30;59367;48.414;9.872;2023-09-19T01:37:14;6774.347168;;4899.147949;;;;;;;
71550;SPS30;59367;48.414;9.872;2023-09-19T01:38:19;6416.514648;;4696.646484;;;;;;;
71550;SPS30;59367;48.414;9.872;2023-09-19T01:39:23;6174.634766;;4549.384277;;;;;;;
71550;SPS30;59367;48.414;9.872;2023-09-19T01:40:28;6526.836426;;4751.294922;;;;;;;
71550;SPS30;59367;48.414;9.872;2023-09-19T01:41:36;5993.807617;;4434.328613;;;;;;;
71550;SPS30;59367;48.414;9.872;2023-09-19T01:42:50;6287.458008;;4617.255859;;;;;;;
71550;SPS30;59367;48.414;9.872;2023-09-19T01:44:00;6099.04541;;4507.506836;;;;;;;
71550;SPS30;59367;48.414;9.872;2023-09-19T01:45:09;6226.614258;;4576.59668;;;;;;;
71550;SPS30;59367;48.414;9.872;2023-09-19T01:46:21;6253.616211;;4591.82666;;;;;;;
71550;SPS30;59367;48.414;9.872;2023-09-19T01:47:33;6284.873047;;4605.42334;;;;;;;
71550;SPS30;59367;48.414;9.872;2023-09-19T01:48:41;6246.753906;;4586.272949;;;;;;;
71550;SPS30;59367;48.414;9.872;2023-09-19T01:49:54;6447.680664;;4699.446289;;;;;;;
71550;SPS30;59367;48.414;9.872;2023-09-19T01:51:05;6487.291504;;4717.193359;;;;;;;
71550;SPS30;59367;48.414;9.872;2023-09-19T01:52:11;5895.492676;;4381.85791;;;;;;;
71550;SPS30;59367;48.414;9.872;2023-09-19T01:53:19;6215.304199;;4572.806641;;;;;;;
71550;SPS30;59367;48.414;9.872;2023-09-19T01:54:30;6514.277832;;4738.376953;;;;;;;
71550;SPS30;59367;48.414;9.872;2023-09-19T01:55:43;6399.061035;;4668.827148;;;;;;;
71550;SPS30;59367;48.414;9.872;2023-09-19T01:56:53;6384.802246;;4662.72168;;;;;;;
71550;SPS30;59367;48.414;9.872;2023-09-19T01:58:12;6568.005859;;4776.084961;;;;;;;
71550;SPS30;59367;48.414;9.872;2023-09-19T01:59:21;6039.290527;;4471.390137;;;;;;;
71550;SPS30;59367;48.414;9.872;2023-09-19T02:00:31;6035.134766;;4462.475586;;;;;;;
71550;SPS30;59367;48.414;9.872;2023-09-19T02:01:38;6100.10791;;4503.165039;;;;;;;
71550;SPS30;59367;48.414;9.872;2023-09-19T02:02:45;6282.024902;;4603.053223;;;;;;;
71550;SPS30;59367;48.414;9.872;2023-09-19T02:03:50;6239.933105;;4587.751953;;;;;;;
71550;SPS30;59367;48.414;9.872;2023-09-19T02:04:56;6364.404297;;4666.924316;;;;;;;
71550;SPS30;59367;48.414;9.872;2023-09-19T02:06:00;6351.1875;;4656.714355;;;;;;;
71550;SPS30;59367;48.414;9.872;2023-09-19T02:07:06;6130.073242;;4531.45752;;;;;;;
71550;SPS30;59367;48.414;9.872;2023-09-19T02:08:10;6280.080566;;4622.411621;;;;;;;
71550;SPS30;59367;48.414;9.872;2023-09-19T02:09:17;5937.981445;;4418.625977;;;;;;;
71550;SPS30;59367;48.414;9.872;2023-09-19T02:10:22;6049.158691;;4489.805664;;;;;;;
71550;SPS30;59367;48.414;9.872;2023-09-19T02:11:26;5995.588379;;4450.571289;;;;;;;
71550;SPS30;59367;48.414;9.872;2023-09-19T02:12:31;6154.269531;;4543.797852;;;;;;;
71550;SPS30;59367;48.414;9.872;2023-09-19T02:13:36;6399.67334;;4689.091797;;;;;;;
71550;SPS30;59367;48.414;9.872;2023-09-19T02:14:40;6165.406738;;4547.778809;;;;;;;
71550;SPS30;59367;48.414;9.872;2023-09-19T02:15:45;6027.448242;;4470.525879;;;;;;;
71550;SPS30;59367;48.414;9.872;2023-09-19T02:16:49;6075.595703;;4500.552734;;;;;;;
71550;SPS30;59367;48.414;9.872;2023-09-19T02:17:54;6075.785645;;4492.393066;;;;;;;
71550;SPS30;59367;48.414;9.872;2023-09-19T02:18:58;6320.233398;;4645.679688;;;;;;;
71550;SPS30;59367;48.414;9.872;2023-09-19T02:20:03;6448.25293;;4709.376953;;;;;;;
71550;SPS30;59367;48.414;9.872;2023-09-19T02:21:08;6202.15625;;4564.498535;;;;;;;
71550;SPS30;59367;48.414;9.872;2023-09-19T02:22:12;6037.56543;;4467.012207;;;;;;;
71550;SPS30;59367;48.414;9.872;2023-09-19T02:23:17;6333.975098;;4648.553711;;;;;;;
71550;SPS30;59367;48.414;9.872;2023-09-19T02:24:22;6268.331055;;4610.049316;;;;;;;
71550;SPS30;59367;48.414;9.872;2023-09-19T02:25:26;6159.874512;;4535.050293;;;;;;;
71550;SPS30;59367;48.414;9.872;2023-09-19T02:26:31;6061.749512;;4491.79248;;;;;;;
71550;SPS30;59367;48.414;9.872;2023-09-19T02:27:35;6063.138184;;4483.724609;;;;;;;
71550;SPS30;59367;48.414;9.872;2023-09-19T02:28:39;6259.365234;;4598.854492;;;;;;;
71550;SPS30;59367;48.414;9.872;2023-09-19T02:29:44;6206.689941;;4572.595215;;;;;;;
71550;SPS30;59367;48.414;9.872;2023-09-19T02:30:49;6582.629395;;4795.516113;;;;;;;
71550;SPS30;59367;48.414;9.872;2023-09-19T02:31:53;6077.539063;;4491.970215;;;;;;;
71550;SPS30;59367;48.414;9.872;2023-09-19T02:32:58;6194.591797;;4558.854492;;;;;;;
71550;SPS30;59367;48.414;9.872;2023-09-19T02:34:02;6079.939941;;4490.102051;;;;;;;
71550;SPS30;59367;48.414;9.872;2023-09-19T02:35:08;6099.148926;;4500.167969;;;;;;;
71550;SPS30;59367;48.414;9.872;2023-09-19T02:36:12;6055.828613;;4470.606934;;;;;;;
71550;SPS30;59367;48.414;9.872;2023-09-19T02:37:17;6159.623047;;4539.175293;;;;;;;
71550;SPS30;59367;48.414;9.872;2023-09-19T02:38:21;6327.311523;;4630.560547;;;;;;;
71550;SPS30;59367;48.414;9.872;2023-09-19T02:39:26;5840.692383;;4348.700195;;;;;;;
71550;SPS30;59367;48.414;9.872;2023-09-19T02:40:30;6097.671387;;4502.294922;;;;;;;
71550;SPS30;59367;48.414;9.872;2023-09-19T02:41:35;6054.981445;;4480.521484;;;;;;;
71550;SPS30;59367;48.414;9.872;2023-09-19T02:42:40;6297.304688;;4605.991211;;;;;;;
71550;SPS30;59367;48.414;9.872;2023-09-19T02:43:46;6251.169434;;4588.476074;;;;;;;
71550;SPS30;59367;48.414;9.872;2023-09-19T02:44:51;5969.207031;;4418.09375;;;;;;;
71550;SPS30;59367;48.414;9.872;2023-09-19T02:45:55;6160.166504;;4534.611328;;;;;;;
71550;SPS30;59367;48.414;9.872;2023-09-19T02:47:00;6167.304199;;4532.955566;;;;;;;
71550;SPS30;59367;48.414;9.872;2023-09-19T02:48:05;6140.097656;;4522.717285;;;;;;;
71550;SPS30;59367;48.414;9.872;2023-09-19T02:49:09;5997.316895;;4438.867188;;;;;;;
71550;SPS30;59367;48.414;9.872;2023-09-19T02:50:14;5948.668457;;4413.862793;;;;;;;
71550;SPS30;59367;48.414;9.872;2023-09-19T02:51:19;6143.854004;;4524.181152;;;;;;;
71550;SPS30;59367;48.414;9.872;2023-09-19T02:52:23;6470.362793;;4717.849121;;;;;;;
71550;SPS30;59367;48.414;9.872;2023-09-19T02:53:28;6126.779297;;4521.004883;;;;;;;
71550;SPS30;59367;48.414;9.872;2023-09-19T02:54:32;6216.909668;;4571.172852;;;;;;;
71550;SPS30;59367;48.414;9.872;2023-09-19T02:55:37;6399.504883;;4668.969727;;;;;;;
71550;SPS30;59367;48.414;9.872;2023-09-19T02:56:41;6055.697754;;4473.893066;;;;;;;
71550;SPS30;59367;48.414;9.872;2023-09-19T02:57:49;5749.950684;;4295.077148;;;;;;;
71550;SPS30;59367;48.414;9.872;2023-09-19T02:58:55;6338.562012;;4642.289551;;;;;;;
71550;SPS30;59367;48.414;9.872;2023-09-19T03:00:00;5965.792969;;4421.43457;;;;;;;
71550;SPS30;59367;48.414;9.872;2023-09-19T03:01:14;5857.935059;;4348.720703;;;;;;;
71550;SPS30;59367;48.414;9.872;2023-09-19T03:02:18;6138.163086;;4520.967773;;;;;;;
71550;SPS30;59367;48.414;9.872;2023-09-19T03:03:23;5797.12207;;4325.705566;;;;;;;
71550;SPS30;59367;48.414;9.872;2023-09-19T03:04:27;6016.825684;;4451.307129;;;;;;;
71550;SPS30;59367;48.414;9.872;2023-09-19T03:05:32;6226.770996;;4575.827148;;;;;;;
71550;SPS30;59367;48.414;9.872;2023-09-19T03:06:36;6547.312988;;4760.324219;;;;;;;
71550;SPS30;59367;48.414;9.872;2023-09-19T03:07:41;5862.058105;;4358.680664;;;;;;;
71550;SPS30;59367;48.414;9.872;2023-09-19T03:08:45;6181.086426;;4541.62793;;;;;;;
71550;SPS30;59367;48.414;9.872;2023-09-19T03:09:50;6102.931641;;4495.688477;;;;;;;
71550;SPS30;59367;48.414;9.872;2023-09-19T03:10:54;6428.753418;;4697.081543;;;;;;;
71550;SPS30;59367;48.414;9.872;2023-09-19T03:11:59;6198.409668;;4556.348145;;;;;;;
71550;SPS30;59367;48.414;9.872;2023-09-19T03:13:03;6221.085938;;4577.611816;;;;;;;
71550;SPS30;59367;48.414;9.872;2023-09-19T03:14:08;6181.425293;;4549.75;;;;;;;
71550;SPS30;59367;48.414;9.872;2023-09-19T03:15:13;5973.282715;;4431.347168;;;;;;;
71550;SPS30;59367;48.414;9.872;2023-09-19T03:16:18;6107.241699;;4511.55957;;;;;;;
71550;SPS30;59367;48.414;9.872;2023-09-19T03:17:23;6281.839355;;4606.555664;;;;;;;
71550;SPS30;59367;48.414;9.872;2023-09-19T03:18:27;6201.37207;;4563.859375;;;;;;;
71550;SPS30;59367;48.414;9.872;2023-09-19T03:19:31;6130.661621;;4519.722168;;;;;;;
71550;SPS30;59367;48.414;9.872;2023-09-19T03:20:36;6315.259277;;4632.575684;;;;;;;
71550;SPS30;59367;48.414;9.872;2023-09-19T03:21:40;6281.196289;;4619.038086;;;;;;;
71550;SPS30;59367;48.414;9.872;2023-09-19T03:22:45;6272.253906;;4610.474609;;;;;;;
71550;SPS30;59367;48.414;9.872;2023-09-19T03:23:49;6599.320313;;4802.543945;;;;;;;
71550;SPS30;59367;48.414;9.872;2023-09-19T03:24:54;6345.67334;;4651.567383;;;;;;;
71550;SPS30;59367;48.414;9.872;2023-09-19T03:25:58;6427.368652;;4697.950684;;;;;;;
71550;SPS30;59367;48.414;9.872;2023-09-19T03:27:03;6691.970703;;4849.766113;;;;;;;
71550;SPS30;59367;48.414;9.872;2023-09-19T03:28:08;6129.499023;;4522.582031;;;;;;;
71550;SPS30;59367;48.414;9.872;2023-09-19T03:29:12;6005.20752;;4449.025879;;;;;;;
71550;SPS30;59367;48.414;9.872;2023-09-19T03:30:17;6444.121094;;4711.250488;;;;;;;
71550;SPS30;59367;48.414;9.872;2023-09-19T03:31:21;6498.085449;;4735.927246;;;;;;;
71550;SPS30;59367;48.414;9.872;2023-09-19T03:32:26;6546.671875;;4773.666016;;;;;;;
71550;SPS30;59367;48.414;9.872;2023-09-19T03:33:30;6387.037598;;4682.347168;;;;;;;
71550;SPS30;59367;48.414;9.872;2023-09-19T03:34:35;6087.017578;;4506.915039;;;;;;;
71550;SPS30;59367;48.414;9.872;2023-09-19T03:35:41;6645.632324;;4836.925293;;;;;;;
71550;SPS30;59367;48.414;9.872;2023-09-19T03:36:53;6228.398438;;4596.925293;;;;;;;
71550;SPS30;59367;48.414;9.872;2023-09-19T03:37:58;6276.061523;;4621.754883;;;;;;;
71550;SPS30;59367;48.414;9.872;2023-09-19T03:39:02;6230.151367;;4586.285156;;;;;;;
71550;SPS30;59367;48.414;9.872;2023-09-19T03:40:07;6418.651855;;4691.01416;;;;;;;
71550;SPS30;59367;48.414;9.872;2023-09-19T03:41:12;6428.158691;;4698.064941;;;;;;;
71550;SPS30;59367;48.414;9.872;2023-09-19T03:42:17;6255.797852;;4599.580566;;;;;;;
71550;SPS30;59367;48.414;9.872;2023-09-19T03:43:21;6138.89209;;4524.368164;;;;;;;
71550;SPS30;59367;48.414;9.872;2023-09-19T03:44:25;6182.75;;4552.513672;;;;;;;
71550;SPS30;59367;48.414;9.872;2023-09-19T03:45:30;6279.309082;;4613.803711;;;;;;;
71550;SPS30;59367;48.414;9.872;2023-09-19T03:46:35;5983.012207;;4442.129883;;;;;;;
71550;SPS30;59367;48.414;9.872;2023-09-19T03:47:40;6326.114258;;4645.062012;;;;;;;
71550;SPS30;59367;48.414;9.872;2023-09-19T03:48:44;6296.808105;;4622.488281;;;;;;;
71550;SPS30;59367;48.414;9.872;2023-09-19T03:49:48;6330.084473;;4653.881348;;;;;;;
71550;SPS30;59367;48.414;9.872;2023-09-19T03:50:53;5878.50293;;4381.980957;;;;;;;
71550;SPS30;59367;48.414;9.872;2023-09-19T03:51:57;6480.633301;;4736.058594;;;;;;;
71550;SPS30;59367;48.414;9.872;2023-09-19T03:53:02;6123.86084;;4524.407227;;;;;;;
71550;SPS30;59367;48.414;9.872;2023-09-19T03:54:06;6108.311035;;4522.5;;;;;;;
71550;SPS30;59367;48.414;9.872;2023-09-19T03:55:11;5909.612305;;4406.69873;;;;;;;
71550;SPS30;59367;48.414;9.872;2023-09-19T03:56:16;6073.8125;;4505.798828;;;;;;;
71550;SPS30;59367;48.414;9.872;2023-09-19T03:57:20;5706.36084;;4289.92627;;;;;;;
71550;SPS30;59367;48.414;9.872;2023-09-19T03:58:24;6121.643555;;4528.090332;;;;;;;
71550;SPS30;59367;48.414;9.872;2023-09-19T03:59:29;5932.839355;;4425.084961;;;;;;;
71550;SPS30;59367;48.414;9.872;2023-09-19T04:00:33;6045.593262;;4491.458984;;;;;;;
71550;SPS30;59367;48.414;9.872;2023-09-19T04:01:38;5710.80127;;4291.584961;;;;;;;
71550;SPS30;59367;48.414;9.872;2023-09-19T04:02:42;6067.750488;;4500.566895;;;;;;;
71550;SPS30;59367;48.414;9.872;2023-09-19T04:03:46;5924.009277;;4411.57373;;;;;;;
71550;SPS30;59367;48.414;9.872;2023-09-19T04:04:51;6083.198242;;4500.708496;;;;;;;
71550;SPS30;59367;48.414;9.872;2023-09-19T04:05:56;6197.511719;;4570.17627;;;;;;;
71550;SPS30;59367;48.414;9.872;2023-09-19T04:07:00;5921.848633;;4406.069336;;;;;;;
71550;SPS30;59367;48.414;9.872;2023-09-19T04:08:05;6057.701172;;4485.847656;;;;;;;
71550;SPS30;59367;48.414;9.872;2023-09-19T04:09:09;5823.322754;;4350.522461;;;;;;;
71550;SPS30;59367;48.414;9.872;2023-09-19T04:10:14;5715.410156;;4287.256836;;;;;;;
71550;SPS30;59367;48.414;9.872;2023-09-19T04:11:19;5907.293945;;4396.612305;;;;;;;
71550;SPS30;59367;48.414;9.872;2023-09-19T04:12:23;5895.172852;;4381.879395;;;;;;;
71550;SPS30;59367;48.414;9.872;2023-09-19T04:13:28;5666.015137;;4260.239746;;;;;;;
71550;SPS30;59367;48.414;9.872;2023-09-19T04:14:32;5857.465332;;4365.607422;;;;;;;
71550;SPS30;59367;48.414;9.872;2023-09-19T04:15:36;5620.138184;;4239.471191;;;;;;;
71550;SPS30;59367;48.414;9.872;2023-09-19T04:16:41;6021.020996;;4470.906738;;;;;;;
71550;SPS30;59367;48.414;9.872;2023-09-19T04:17:45;6045.294434;;4487.362793;;;;;;;
71550;SPS30;59367;48.414;9.872;2023-09-19T04:18:50;6042.958496;;4484.379395;;;;;;;
71550;SPS30;59367;48.414;9.872;2023-09-19T04:19:54;5976.066895;;4441.160156;;;;;;;
71550;SPS30;59367;48.414;9.872;2023-09-19T04:20:58;5916.287598;;4408.124023;;;;;;;
71550;SPS30;59367;48.414;9.872;2023-09-19T04:22:03;6163.052734;;4553.910645;;;;;;;
71550;SPS30;59367;48.414;9.872;2023-09-19T04:23:07;6080.989746;;4500.202637;;;;;;;
71550;SPS30;59367;48.414;9.872;2023-09-19T04:24:12;5829.52002;;4355.953613;;;;;;;
71550;SPS30;59367;48.414;9.872;2023-09-19T04:25:16;5777.576172;;4334.763672;;;;;;;
71550;SPS30;59367;48.414;9.872;2023-09-19T04:26:20;6087.809082;;4510.668945;;;;;;;
71550;SPS30;59367;48.414;9.872;2023-09-19T04:27:25;6035.569336;;4472.34375;;;;;;;
71550;SPS30;59367;48.414;9.872;2023-09-19T04:28:29;5965.150879;;4436.507324;;;;;;;
71550;SPS30;59367;48.414;9.872;2023-09-19T04:29:34;5693.089355;;4274.509277;;;;;;;
71550;SPS30;59367;48.414;9.872;2023-09-19T04:30:38;5944.915527;;4428.991211;;;;;;;
71550;SPS30;59367;48.414;9.872;2023-09-19T04:31:43;5939.744141;;4419.887695;;;;;;;
71550;SPS30;59367;48.414;9.872;2023-09-19T04:32:47;5902.189453;;4397.790039;;;;;;;
71550;SPS30;59367;48.414;9.872;2023-09-19T04:33:52;5789.411133;;4339.512695;;;;;;;
71550;SPS30;59367;48.414;9.872;2023-09-19T04:34:56;5706.922363;;4282.865723;;;;;;;
71550;SPS30;59367;48.414;9.872;2023-09-19T04:36:00;5890.835449;;4387.581543;;;;;;;
71550;SPS30;59367;48.414;9.872;2023-09-19T04:37:05;5468.767578;;4143.243652;;;;;;;
71550;SPS30;59367;48.414;9.872;2023-09-19T04:38:10;5991.476074;;4447.400391;;;;;;;
71550;SPS30;59367;48.414;9.872;2023-09-19T04:39:14;5781.759277;;4328.710449;;;;;;;
71550;SPS30;59367;48.414;9.872;2023-09-19T04:40:18;5896.913086;;4401.446777;;;;;;;
71550;SPS30;59367;48.414;9.872;2023-09-19T04:41:23;5841.97168;;4363.79248;;;;;;;
71550;SPS30;59367;48.414;9.872;2023-09-19T04:42:27;5768.413574;;4319.918457;;;;;;;
71550;SPS30;59367;48.414;9.872;2023-09-19T04:43:31;5832.924316;;4350.880859;;;;;;;
71550;SPS30;59367;48.414;9.872;2023-09-19T04:44:36;5697.468262;;4274.079102;;;;;;;
71550;SPS30;59367;48.414;9.872;2023-09-19T04:45:40;6093.765137;;4507.41748;;;;;;;
71550;SPS30;59367;48.414;9.872;2023-09-19T04:46:45;6052.464844;;4492.884766;;;;;;;
71550;SPS30;59367;48.414;9.872;2023-09-19T04:47:49;6014.887207;;4467.654297;;;;;;;
71550;SPS30;59367;48.414;9.872;2023-09-19T04:48:53;5517.492676;;4177.723145;;;;;;;
71550;SPS30;59367;48.414;9.872;2023-09-19T04:49:58;5941.419434;;4427.175781;;;;;;;
71550;SPS30;59367;48.414;9.872;2023-09-19T04:51:02;5793.590332;;4336.425781;;;;;;;
71550;SPS30;59367;48.414;9.872;2023-09-19T04:52:07;5745.51709;;4312.706543;;;;;;;
71550;SPS30;59367;48.414;9.872;2023-09-19T04:53:11;6015.606934;;4465.918945;;;;;;;
71550;SPS30;59367;48.414;9.872;2023-09-19T04:54:16;6413.916504;;4692.308594;;;;;;;
71550;SPS30;59367;48.414;9.872;2023-09-19T04:55:20;6061.15332;;4486.268555;;;;;;;
71550;SPS30;59367;48.414;9.872;2023-09-19T04:56:24;5971.03125;;4440.05957;;;;;;;
71550;SPS30;59367;48.414;9.872;2023-09-19T04:57:29;6108.412598;;4515.699707;;;;;;;
71550;SPS30;59367;48.414;9.872;2023-09-19T04:58:33;6269.270996;;4613.868164;;;;;;;
71550;SPS30;59367;48.414;9.872;2023-09-19T04:59:38;5900.003906;;4396.759277;;;;;;;
71550;SPS30;59367;48.414;9.872;2023-09-19T05:00:42;6229.815918;;4590.62793;;;;;;;
71550;SPS30;59367;48.414;9.872;2023-09-19T05:01:46;6006;;4460.267578;;;;;;;
71550;SPS30;59367;48.414;9.872;2023-09-19T05:02:51;5954.330078;;4438.549805;;;;;;;
71550;SPS30;59367;48.414;9.872;2023-09-19T05:03:57;6216.966309;;4584.174805;;;;;;;
71550;SPS30;59367;48.414;9.872;2023-09-19T05:05:01;5933.208984;;4417.288574;;;;;;;
71550;SPS30;59367;48.414;9.872;2023-09-19T05:06:06;5878.506836;;4382.730469;;;;;;;
71550;SPS30;59367;48.414;9.872;2023-09-19T05:07:10;6269.980957;;4611.098633;;;;;;;
71550;SPS30;59367;48.414;9.872;2023-09-19T05:08:14;6131.869629;;4532.049805;;;;;;;
71550;SPS30;59367;48.414;9.872;2023-09-19T05:09:19;6108.123047;;4535.589355;;;;;;;
71550;SPS30;59367;48.414;9.872;2023-09-19T05:10:23;6271.964355;;4618.023438;;;;;;;
71550;SPS30;59367;48.414;9.872;2023-09-19T05:11:28;6303.036133;;4629.8125;;;;;;;
71550;SPS30;59367;48.414;9.872;2023-09-19T05:12:33;6045.998047;;4490.815918;;;;;;;
71550;SPS30;59367;48.414;9.872;2023-09-19T05:13:38;6022.199219;;4475.024902;;;;;;;
71550;SPS30;59367;48.414;9.872;2023-09-19T05:14:42;6424.051758;;4700.361328;;;;;;;
71550;SPS30;59367;48.414;9.872;2023-09-19T05:15:46;6213.395996;;4577.283691;;;;;;;
71550;SPS30;59367;48.414;9.872;2023-09-19T05:16:51;6254.042969;;4601.403809;;;;;;;
71550;SPS30;59367;48.414;9.872;2023-09-19T05:17:55;6374.799316;;4681.402832;;;;;;;